sensor_id;sensor_type;location;lat;lon;timestamp;P1;durP1;ratioP1;P2;durP2;ratioP2
60464;SDS011;46314;52.392;9.758;2022-11-15T00:00:01;18.05;;;14.70;;
60464;SDS011;46314;52.392;9.758;2022-11-15T00:02:27;22.40;;;15.93;;
60464;SDS011;46314;52.392;9.758;2022-11-15T00:04:54;19.65;;;14.48;;
60464;SDS011;46314;52.392;9.758;2022-11-15T00:07:22;26.48;;;15.60;;
60464;SDS011;46314;52.392;9.758;2022-11-15T00:10:08;24.00;;;16.83;;
60464;SDS011;46314;52.392;9.758;2022-11-15T00:12:35;21.40;;;14.10;;
60464;SDS011;46314;52.392;9.758;2022-11-15T00:15:01;21.48;;;16.13;;
60464;SDS011;46314;52.392;9.758;2022-11-15T00:17:28;20.42;;;14.52;;
60464;SDS011;46314;52.392;9.758;2022-11-15T00:19:55;19.65;;;14.88;;
60464;SDS011;46314;52.392;9.758;2022-11-15T00:22:23;23.60;;;15.75;;
60464;SDS011;46314;52.392;9.758;2022-11-15T00:24:49;18.33;;;13.98;;
60464;SDS011;46314;52.392;9.758;2022-11-15T00:27:16;21.45;;;15.02;;
60464;SDS011;46314;52.392;9.758;2022-11-15T00:29:42;20.25;;;13.93;;
60464;SDS011;46314;52.392;9.758;2022-11-15T00:32:09;19.80;;;13.98;;
60464;SDS011;46314;52.392;9.758;2022-11-15T00:34:35;18.23;;;13.90;;
60464;SDS011;46314;52.392;9.758;2022-11-15T00:37:02;15.93;;;13.07;;
60464;SDS011;46314;52.392;9.758;2022-11-15T00:39:30;16.63;;;13.13;;
60464;SDS011;46314;52.392;9.758;2022-11-15T00:41:56;20.92;;;14.27;;
60464;SDS011;46314;52.392;9.758;2022-11-15T00:44:22;17.67;;;14.60;;
60464;SDS011;46314;52.392;9.758;2022-11-15T00:46:49;16.25;;;13.43;;
60464;SDS011;46314;52.392;9.758;2022-11-15T00:49:15;18.27;;;13.35;;
60464;SDS011;46314;52.392;9.758;2022-11-15T00:51:42;17.35;;;13.65;;
60464;SDS011;46314;52.392;9.758;2022-11-15T00:54:08;19.73;;;13.88;;
60464;SDS011;46314;52.392;9.758;2022-11-15T00:56:36;17.08;;;13.60;;
60464;SDS011;46314;52.392;9.758;2022-11-15T00:59:03;16.30;;;12.75;;
60464;SDS011;46314;52.392;9.758;2022-11-15T01:01:29;16.35;;;11.98;;
60464;SDS011;46314;52.392;9.758;2022-11-15T01:03:56;21.13;;;12.88;;
60464;SDS011;46314;52.392;9.758;2022-11-15T01:06:26;16.15;;;12.35;;
60464;SDS011;46314;52.392;9.758;2022-11-15T01:08:53;16.67;;;13.65;;
60464;SDS011;46314;52.392;9.758;2022-11-15T01:11:19;16.38;;;13.30;;
60464;SDS011;46314;52.392;9.758;2022-11-15T01:13:47;16.80;;;13.10;;
60464;SDS011;46314;52.392;9.758;2022-11-15T01:16:14;17.20;;;13.65;;
60464;SDS011;46314;52.392;9.758;2022-11-15T01:18:43;27.30;;;17.15;;
60464;SDS011;46314;52.392;9.758;2022-11-15T01:21:11;19.35;;;14.57;;
60464;SDS011;46314;52.392;9.758;2022-11-15T01:23:39;18.77;;;12.93;;
60464;SDS011;46314;52.392;9.758;2022-11-15T01:26:07;20.65;;;14.32;;
60464;SDS011;46314;52.392;9.758;2022-11-15T01:28:36;17.58;;;14.00;;
60464;SDS011;46314;52.392;9.758;2022-11-15T01:31:06;15.85;;;11.93;;
60464;SDS011;46314;52.392;9.758;2022-11-15T01:33:35;18.50;;;12.82;;
60464;SDS011;46314;52.392;9.758;2022-11-15T01:36:03;17.70;;;12.48;;
60464;SDS011;46314;52.392;9.758;2022-11-15T01:38:29;16.83;;;12.45;;
60464;SDS011;46314;52.392;9.758;2022-11-15T01:40:56;15.60;;;11.95;;
60464;SDS011;46314;52.392;9.758;2022-11-15T01:43:23;25.73;;;13.43;;
60464;SDS011;46314;52.392;9.758;2022-11-15T01:45:52;17.17;;;12.25;;
60464;SDS011;46314;52.392;9.758;2022-11-15T01:48:25;20.85;;;14.20;;
60464;SDS011;46314;52.392;9.758;2022-11-15T01:50:57;19.50;;;14.57;;
60464;SDS011;46314;52.392;9.758;2022-11-15T01:53:24;17.55;;;13.43;;
60464;SDS011;46314;52.392;9.758;2022-11-15T01:55:52;16.13;;;12.13;;
60464;SDS011;46314;52.392;9.758;2022-11-15T01:58:19;16.40;;;12.27;;
60464;SDS011;46314;52.392;9.758;2022-11-15T02:00:46;17.77;;;13.15;;
60464;SDS011;46314;52.392;9.758;2022-11-15T02:03:13;16.92;;;13.27;;
60464;SDS011;46314;52.392;9.758;2022-11-15T02:05:41;21.52;;;13.98;;
60464;SDS011;46314;52.392;9.758;2022-11-15T02:08:09;17.05;;;12.95;;
60464;SDS011;46314;52.392;9.758;2022-11-15T02:10:36;13.50;;;11.02;;
60464;SDS011;46314;52.392;9.758;2022-11-15T02:13:03;15.57;;;12.13;;
60464;SDS011;46314;52.392;9.758;2022-11-15T02:15:30;21.92;;;14.07;;
60464;SDS011;46314;52.392;9.758;2022-11-15T02:18:07;14.68;;;12.30;;
60464;SDS011;46314;52.392;9.758;2022-11-15T02:20:46;18.73;;;12.88;;
60464;SDS011;46314;52.392;9.758;2022-11-15T02:29:32;15.93;;;11.45;;
60464;SDS011;46314;52.392;9.758;2022-11-15T02:32:15;19.42;;;12.65;;
60464;SDS011;46314;52.392;9.758;2022-11-15T02:34:48;14.90;;;12.07;;
60464;SDS011;46314;52.392;9.758;2022-11-15T02:37:21;16.85;;;11.27;;
60464;SDS011;46314;52.392;9.758;2022-11-15T02:39:56;15.60;;;11.82;;
60464;SDS011;46314;52.392;9.758;2022-11-15T02:42:30;13.88;;;11.30;;
60464;SDS011;46314;52.392;9.758;2022-11-15T02:45:03;18.77;;;12.25;;
60464;SDS011;46314;52.392;9.758;2022-11-15T02:47:34;12.55;;;10.85;;
60464;SDS011;46314;52.392;9.758;2022-11-15T02:50:08;15.88;;;10.43;;
60464;SDS011;46314;52.392;9.758;2022-11-15T02:52:37;14.48;;;10.85;;
60464;SDS011;46314;52.392;9.758;2022-11-15T02:55:04;14.65;;;10.00;;
60464;SDS011;46314;52.392;9.758;2022-11-15T02:57:36;15.18;;;10.98;;
60464;SDS011;46314;52.392;9.758;2022-11-15T03:00:12;14.05;;;10.57;;
60464;SDS011;46314;52.392;9.758;2022-11-15T03:05:41;15.18;;;9.73;;
60464;SDS011;46314;52.392;9.758;2022-11-15T03:08:14;12.50;;;10.07;;
60464;SDS011;46314;52.392;9.758;2022-11-15T03:10:50;13.65;;;10.38;;
60464;SDS011;46314;52.392;9.758;2022-11-15T03:13:27;15.00;;;10.82;;
60464;SDS011;46314;52.392;9.758;2022-11-15T03:16:01;13.80;;;10.63;;
60464;SDS011;46314;52.392;9.758;2022-11-15T03:18:32;13.68;;;10.75;;
60464;SDS011;46314;52.392;9.758;2022-11-15T03:21:03;12.70;;;9.93;;
60464;SDS011;46314;52.392;9.758;2022-11-15T03:23:32;13.35;;;9.93;;
60464;SDS011;46314;52.392;9.758;2022-11-15T03:26:01;14.32;;;10.05;;
60464;SDS011;46314;52.392;9.758;2022-11-15T03:28:34;14.77;;;10.02;;
60464;SDS011;46314;52.392;9.758;2022-11-15T03:31:03;14.45;;;9.32;;
60464;SDS011;46314;52.392;9.758;2022-11-15T03:33:32;14.82;;;10.43;;
60464;SDS011;46314;52.392;9.758;2022-11-15T03:35:59;16.10;;;11.07;;
60464;SDS011;46314;52.392;9.758;2022-11-15T03:38:26;12.40;;;9.98;;
60464;SDS011;46314;52.392;9.758;2022-11-15T03:40:58;13.60;;;8.73;;
60464;SDS011;46314;52.392;9.758;2022-11-15T03:43:29;12.80;;;8.73;;
60464;SDS011;46314;52.392;9.758;2022-11-15T03:46:00;12.55;;;10.05;;
60464;SDS011;46314;52.392;9.758;2022-11-15T03:48:30;14.15;;;9.95;;
60464;SDS011;46314;52.392;9.758;2022-11-15T03:51:03;13.77;;;10.27;;
60464;SDS011;46314;52.392;9.758;2022-11-15T03:53:30;11.45;;;9.75;;
60464;SDS011;46314;52.392;9.758;2022-11-15T03:55:58;15.32;;;9.27;;
60464;SDS011;46314;52.392;9.758;2022-11-15T03:58:24;13.48;;;9.48;;
60464;SDS011;46314;52.392;9.758;2022-11-15T04:00:51;11.13;;;8.85;;
60464;SDS011;46314;52.392;9.758;2022-11-15T04:03:17;11.95;;;8.25;;
60464;SDS011;46314;52.392;9.758;2022-11-15T04:05:45;11.57;;;7.45;;
60464;SDS011;46314;52.392;9.758;2022-11-15T04:08:11;13.85;;;9.05;;
60464;SDS011;46314;52.392;9.758;2022-11-15T04:10:38;11.73;;;8.48;;
60464;SDS011;46314;52.392;9.758;2022-11-15T04:13:05;13.80;;;8.65;;
60464;SDS011;46314;52.392;9.758;2022-11-15T04:15:31;11.52;;;8.45;;
60464;SDS011;46314;52.392;9.758;2022-11-15T04:17:58;12.57;;;9.10;;
60464;SDS011;46314;52.392;9.758;2022-11-15T04:20:26;12.02;;;8.50;;
60464;SDS011;46314;52.392;9.758;2022-11-15T04:22:56;11.13;;;7.93;;
60464;SDS011;46314;52.392;9.758;2022-11-15T04:25:24;13.63;;;9.00;;
60464;SDS011;46314;52.392;9.758;2022-11-15T04:27:57;9.70;;;7.55;;
60464;SDS011;46314;52.392;9.758;2022-11-15T04:30:23;9.68;;;7.57;;
60464;SDS011;46314;52.392;9.758;2022-11-15T04:32:50;10.10;;;7.32;;
60464;SDS011;46314;52.392;9.758;2022-11-15T04:35:16;12.40;;;7.60;;
60464;SDS011;46314;52.392;9.758;2022-11-15T04:37:42;10.77;;;7.32;;
60464;SDS011;46314;52.392;9.758;2022-11-15T04:40:16;12.65;;;7.50;;
60464;SDS011;46314;52.392;9.758;2022-11-15T04:42:42;12.02;;;7.22;;
60464;SDS011;46314;52.392;9.758;2022-11-15T04:45:09;10.27;;;7.35;;
60464;SDS011;46314;52.392;9.758;2022-11-15T04:47:36;10.68;;;6.35;;
60464;SDS011;46314;52.392;9.758;2022-11-15T04:50:03;8.07;;;6.63;;
60464;SDS011;46314;52.392;9.758;2022-11-15T04:52:30;12.48;;;7.15;;
60464;SDS011;46314;52.392;9.758;2022-11-15T04:54:56;8.15;;;6.55;;
60464;SDS011;46314;52.392;9.758;2022-11-15T04:57:24;7.57;;;5.97;;
60464;SDS011;46314;52.392;9.758;2022-11-15T04:59:50;11.88;;;6.68;;
60464;SDS011;46314;52.392;9.758;2022-11-15T05:02:17;9.35;;;6.50;;
60464;SDS011;46314;52.392;9.758;2022-11-15T05:04:43;8.38;;;6.28;;
60464;SDS011;46314;52.392;9.758;2022-11-15T05:07:10;9.30;;;6.65;;
60464;SDS011;46314;52.392;9.758;2022-11-15T05:09:36;7.20;;;5.72;;
60464;SDS011;46314;52.392;9.758;2022-11-15T05:12:03;8.85;;;5.78;;
60464;SDS011;46314;52.392;9.758;2022-11-15T05:14:31;8.57;;;5.93;;
60464;SDS011;46314;52.392;9.758;2022-11-15T05:16:57;12.88;;;8.73;;
60464;SDS011;46314;52.392;9.758;2022-11-15T05:19:24;10.27;;;7.07;;
60464;SDS011;46314;52.392;9.758;2022-11-15T05:21:50;10.50;;;7.85;;
60464;SDS011;46314;52.392;9.758;2022-11-15T05:24:16;10.27;;;7.15;;
60464;SDS011;46314;52.392;9.758;2022-11-15T05:26:43;7.63;;;5.78;;
60464;SDS011;46314;52.392;9.758;2022-11-15T05:29:10;9.68;;;6.03;;
60464;SDS011;46314;52.392;9.758;2022-11-15T05:31:39;7.60;;;5.05;;
60464;SDS011;46314;52.392;9.758;2022-11-15T05:34:06;8.38;;;5.50;;
60464;SDS011;46314;52.392;9.758;2022-11-15T05:36:33;9.25;;;6.18;;
60464;SDS011;46314;52.392;9.758;2022-11-15T05:39:02;7.18;;;5.72;;
60464;SDS011;46314;52.392;9.758;2022-11-15T05:41:30;6.70;;;5.53;;
60464;SDS011;46314;52.392;9.758;2022-11-15T05:44:00;7.15;;;5.40;;
60464;SDS011;46314;52.392;9.758;2022-11-15T05:46:29;8.70;;;5.28;;
60464;SDS011;46314;52.392;9.758;2022-11-15T05:48:57;6.10;;;5.43;;
60464;SDS011;46314;52.392;9.758;2022-11-15T05:51:24;14.43;;;5.75;;
60464;SDS011;46314;52.392;9.758;2022-11-15T05:53:53;8.57;;;5.80;;
60464;SDS011;46314;52.392;9.758;2022-11-15T05:56:22;9.40;;;5.95;;
60464;SDS011;46314;52.392;9.758;2022-11-15T05:58:49;7.95;;;5.55;;
60464;SDS011;46314;52.392;9.758;2022-11-15T06:01:18;7.05;;;6.32;;
60464;SDS011;46314;52.392;9.758;2022-11-15T06:03:45;8.20;;;6.93;;
60464;SDS011;46314;52.392;9.758;2022-11-15T06:06:12;9.48;;;5.45;;
60464;SDS011;46314;52.392;9.758;2022-11-15T06:08:41;9.40;;;5.72;;
60464;SDS011;46314;52.392;9.758;2022-11-15T06:11:08;7.43;;;6.53;;
60464;SDS011;46314;52.392;9.758;2022-11-15T06:13:34;8.52;;;6.28;;
60464;SDS011;46314;52.392;9.758;2022-11-15T06:16:01;7.25;;;6.25;;
60464;SDS011;46314;52.392;9.758;2022-11-15T06:18:28;8.07;;;6.20;;
60464;SDS011;46314;52.392;9.758;2022-11-15T06:20:57;7.80;;;6.00;;
60464;SDS011;46314;52.392;9.758;2022-11-15T06:23:26;7.75;;;6.32;;
60464;SDS011;46314;52.392;9.758;2022-11-15T06:25:52;8.82;;;6.05;;
60464;SDS011;46314;52.392;9.758;2022-11-15T06:28:19;14.93;;;6.90;;
60464;SDS011;46314;52.392;9.758;2022-11-15T06:30:45;10.55;;;8.27;;
60464;SDS011;46314;52.392;9.758;2022-11-15T06:33:18;12.77;;;9.80;;
60464;SDS011;46314;52.392;9.758;2022-11-15T06:35:44;11.07;;;9.23;;
60464;SDS011;46314;52.392;9.758;2022-11-15T06:38:11;9.05;;;7.28;;
60464;SDS011;46314;52.392;9.758;2022-11-15T06:40:39;9.63;;;6.75;;
60464;SDS011;46314;52.392;9.758;2022-11-15T06:43:05;7.75;;;6.47;;
60464;SDS011;46314;52.392;9.758;2022-11-15T06:45:32;8.77;;;7.10;;
60464;SDS011;46314;52.392;9.758;2022-11-15T06:47:59;9.57;;;6.60;;
60464;SDS011;46314;52.392;9.758;2022-11-15T06:50:25;10.45;;;6.45;;
60464;SDS011;46314;52.392;9.758;2022-11-15T06:52:52;13.60;;;6.55;;
60464;SDS011;46314;52.392;9.758;2022-11-15T06:55:18;8.60;;;6.43;;
60464;SDS011;46314;52.392;9.758;2022-11-15T06:57:50;7.30;;;5.72;;
60464;SDS011;46314;52.392;9.758;2022-11-15T07:00:18;9.68;;;6.97;;
60464;SDS011;46314;52.392;9.758;2022-11-15T07:02:46;11.45;;;9.38;;
60464;SDS011;46314;52.392;9.758;2022-11-15T07:05:13;11.73;;;9.13;;
60464;SDS011;46314;52.392;9.758;2022-11-15T07:07:40;10.57;;;7.65;;
60464;SDS011;46314;52.392;9.758;2022-11-15T07:10:07;9.98;;;7.13;;
60464;SDS011;46314;52.392;9.758;2022-11-15T07:12:34;22.35;;;7.80;;
60464;SDS011;46314;52.392;9.758;2022-11-15T07:15:02;15.93;;;6.68;;
60464;SDS011;46314;52.392;9.758;2022-11-15T07:17:30;8.02;;;6.28;;
60464;SDS011;46314;52.392;9.758;2022-11-15T07:19:56;7.82;;;6.20;;
60464;SDS011;46314;52.392;9.758;2022-11-15T07:22:23;9.75;;;5.68;;
60464;SDS011;46314;52.392;9.758;2022-11-15T07:24:49;11.73;;;6.13;;
60464;SDS011;46314;52.392;9.758;2022-11-15T07:27:16;8.60;;;5.97;;
60464;SDS011;46314;52.392;9.758;2022-11-15T07:29:42;7.97;;;6.43;;
60464;SDS011;46314;52.392;9.758;2022-11-15T07:32:10;7.35;;;5.20;;
60464;SDS011;46314;52.392;9.758;2022-11-15T07:34:37;7.70;;;5.75;;
60464;SDS011;46314;52.392;9.758;2022-11-15T07:37:03;7.05;;;6.00;;
60464;SDS011;46314;52.392;9.758;2022-11-15T07:39:30;9.18;;;5.57;;
60464;SDS011;46314;52.392;9.758;2022-11-15T07:41:56;7.93;;;5.88;;
60464;SDS011;46314;52.392;9.758;2022-11-15T07:44:23;10.73;;;6.10;;
60464;SDS011;46314;52.392;9.758;2022-11-15T07:46:49;12.77;;;6.80;;
60464;SDS011;46314;52.392;9.758;2022-11-15T07:49:17;10.00;;;5.65;;
60464;SDS011;46314;52.392;9.758;2022-11-15T07:51:43;8.98;;;5.78;;
60464;SDS011;46314;52.392;9.758;2022-11-15T07:54:10;9.38;;;5.72;;
60464;SDS011;46314;52.392;9.758;2022-11-15T07:56:36;14.68;;;6.28;;
60464;SDS011;46314;52.392;9.758;2022-11-15T07:59:03;10.73;;;6.90;;
60464;SDS011;46314;52.392;9.758;2022-11-15T08:01:29;7.20;;;5.38;;
60464;SDS011;46314;52.392;9.758;2022-11-15T08:03:56;8.15;;;6.10;;
60464;SDS011;46314;52.392;9.758;2022-11-15T08:06:23;8.00;;;5.82;;
60464;SDS011;46314;52.392;9.758;2022-11-15T08:08:50;10.45;;;6.22;;
60464;SDS011;46314;52.392;9.758;2022-11-15T08:11:16;11.57;;;5.40;;
60464;SDS011;46314;52.392;9.758;2022-11-15T08:13:43;10.45;;;5.95;;
60464;SDS011;46314;52.392;9.758;2022-11-15T08:16:09;8.70;;;5.10;;
60464;SDS011;46314;52.392;9.758;2022-11-15T08:18:36;8.57;;;5.50;;
60464;SDS011;46314;52.392;9.758;2022-11-15T08:21:02;8.18;;;5.32;;
60464;SDS011;46314;52.392;9.758;2022-11-15T08:23:31;8.07;;;5.80;;
60464;SDS011;46314;52.392;9.758;2022-11-15T08:26:01;8.02;;;6.22;;
60464;SDS011;46314;52.392;9.758;2022-11-15T08:28:28;8.43;;;5.43;;
60464;SDS011;46314;52.392;9.758;2022-11-15T08:30:55;8.73;;;5.57;;
60464;SDS011;46314;52.392;9.758;2022-11-15T08:33:21;8.98;;;5.38;;
60464;SDS011;46314;52.392;9.758;2022-11-15T08:35:48;8.30;;;5.50;;
60464;SDS011;46314;52.392;9.758;2022-11-15T08:38:14;7.95;;;5.80;;
60464;SDS011;46314;52.392;9.758;2022-11-15T08:40:42;10.48;;;6.05;;
60464;SDS011;46314;52.392;9.758;2022-11-15T08:43:09;5.80;;;4.85;;
60464;SDS011;46314;52.392;9.758;2022-11-15T08:45:35;8.18;;;5.63;;
60464;SDS011;46314;52.392;9.758;2022-11-15T08:48:02;5.72;;;5.10;;
60464;SDS011;46314;52.392;9.758;2022-11-15T08:50:29;6.32;;;5.32;;
60464;SDS011;46314;52.392;9.758;2022-11-15T08:52:56;7.18;;;5.15;;
60464;SDS011;46314;52.392;9.758;2022-11-15T08:55:22;6.82;;;5.43;;
60464;SDS011;46314;52.392;9.758;2022-11-15T08:57:51;8.55;;;5.57;;
60464;SDS011;46314;52.392;9.758;2022-11-15T09:00:18;11.15;;;5.95;;
60464;SDS011;46314;52.392;9.758;2022-11-15T09:02:45;8.80;;;5.65;;
60464;SDS011;46314;52.392;9.758;2022-11-15T09:05:12;6.65;;;4.68;;
60464;SDS011;46314;52.392;9.758;2022-11-15T09:07:38;8.60;;;5.57;;
60464;SDS011;46314;52.392;9.758;2022-11-15T09:10:05;6.88;;;5.05;;
60464;SDS011;46314;52.392;9.758;2022-11-15T09:12:32;17.23;;;6.63;;
60464;SDS011;46314;52.392;9.758;2022-11-15T09:14:59;6.93;;;4.78;;
60464;SDS011;46314;52.392;9.758;2022-11-15T09:17:26;6.88;;;5.47;;
60464;SDS011;46314;52.392;9.758;2022-11-15T09:19:52;7.80;;;5.22;;
60464;SDS011;46314;52.392;9.758;2022-11-15T09:22:19;8.40;;;5.32;;
60464;SDS011;46314;52.392;9.758;2022-11-15T09:24:45;5.70;;;5.03;;
60464;SDS011;46314;52.392;9.758;2022-11-15T09:27:12;9.32;;;5.10;;
60464;SDS011;46314;52.392;9.758;2022-11-15T09:29:38;5.10;;;4.43;;
60464;SDS011;46314;52.392;9.758;2022-11-15T09:32:06;7.43;;;5.35;;
60464;SDS011;46314;52.392;9.758;2022-11-15T09:34:33;8.13;;;5.95;;
60464;SDS011;46314;52.392;9.758;2022-11-15T09:36:59;8.40;;;5.22;;
60464;SDS011;46314;52.392;9.758;2022-11-15T09:39:26;6.07;;;4.50;;
60464;SDS011;46314;52.392;9.758;2022-11-15T09:42:02;5.78;;;4.68;;
60464;SDS011;46314;52.392;9.758;2022-11-15T09:44:53;5.10;;;4.30;;
60464;SDS011;46314;52.392;9.758;2022-11-15T09:47:35;6.70;;;4.43;;
60464;SDS011;46314;52.392;9.758;2022-11-15T09:50:12;6.55;;;3.92;;
60464;SDS011;46314;52.392;9.758;2022-11-15T09:52:42;5.68;;;4.07;;
60464;SDS011;46314;52.392;9.758;2022-11-15T09:55:11;8.95;;;4.63;;
60464;SDS011;46314;52.392;9.758;2022-11-15T09:57:41;8.15;;;4.15;;
60464;SDS011;46314;52.392;9.758;2022-11-15T10:00:16;7.65;;;4.65;;
60464;SDS011;46314;52.392;9.758;2022-11-15T10:03:11;4.95;;;4.20;;
60464;SDS011;46314;52.392;9.758;2022-11-15T10:05:40;4.80;;;4.25;;
60464;SDS011;46314;52.392;9.758;2022-11-15T10:08:17;4.85;;;4.07;;
60464;SDS011;46314;52.392;9.758;2022-11-15T10:10:52;5.25;;;3.83;;
60464;SDS011;46314;52.392;9.758;2022-11-15T10:13:43;8.65;;;4.82;;
60464;SDS011;46314;52.392;9.758;2022-11-15T10:16:14;7.22;;;5.00;;
60464;SDS011;46314;52.392;9.758;2022-11-15T10:18:54;7.65;;;4.82;;
60464;SDS011;46314;52.392;9.758;2022-11-15T10:21:27;6.68;;;4.80;;
60464;SDS011;46314;52.392;9.758;2022-11-15T10:23:59;4.97;;;3.95;;
60464;SDS011;46314;52.392;9.758;2022-11-15T10:26:27;4.75;;;4.00;;
60464;SDS011;46314;52.392;9.758;2022-11-15T10:28:53;7.05;;;3.60;;
60464;SDS011;46314;52.392;9.758;2022-11-15T10:31:21;5.70;;;4.30;;
60464;SDS011;46314;52.392;9.758;2022-11-15T10:33:49;5.05;;;4.10;;
60464;SDS011;46314;52.392;9.758;2022-11-15T10:36:18;7.18;;;4.07;;
60464;SDS011;46314;52.392;9.758;2022-11-15T10:38:55;4.82;;;3.60;;
60464;SDS011;46314;52.392;9.758;2022-11-15T10:41:29;7.63;;;4.30;;
60464;SDS011;46314;52.392;9.758;2022-11-15T10:50:06;6.88;;;3.85;;
60464;SDS011;46314;52.392;9.758;2022-11-15T10:52:53;8.23;;;4.00;;
60464;SDS011;46314;52.392;9.758;2022-11-15T10:55:22;5.88;;;3.97;;
60464;SDS011;46314;52.392;9.758;2022-11-15T10:57:52;6.57;;;3.85;;
60464;SDS011;46314;52.392;9.758;2022-11-15T11:00:27;4.80;;;3.10;;
60464;SDS011;46314;52.392;9.758;2022-11-15T11:02:57;4.88;;;3.53;;
60464;SDS011;46314;52.392;9.758;2022-11-15T11:05:26;4.53;;;3.10;;
60464;SDS011;46314;52.392;9.758;2022-11-15T11:07:58;4.00;;;3.25;;
60464;SDS011;46314;52.392;9.758;2022-11-15T11:10:25;5.97;;;3.50;;
60464;SDS011;46314;52.392;9.758;2022-11-15T11:13:12;5.75;;;3.38;;
60464;SDS011;46314;52.392;9.758;2022-11-15T11:15:40;8.02;;;3.45;;
60464;SDS011;46314;52.392;9.758;2022-11-15T11:18:10;4.90;;;3.50;;
60464;SDS011;46314;52.392;9.758;2022-11-15T11:20:49;6.55;;;4.00;;
60464;SDS011;46314;52.392;9.758;2022-11-15T11:23:23;5.60;;;3.55;;
60464;SDS011;46314;52.392;9.758;2022-11-15T11:26:06;6.88;;;4.20;;
60464;SDS011;46314;52.392;9.758;2022-11-15T11:28:46;5.47;;;3.90;;
60464;SDS011;46314;52.392;9.758;2022-11-15T11:31:22;6.05;;;4.60;;
60464;SDS011;46314;52.392;9.758;2022-11-15T11:33:59;5.72;;;3.90;;
60464;SDS011;46314;52.392;9.758;2022-11-15T11:36:39;4.10;;;3.13;;
60464;SDS011;46314;52.392;9.758;2022-11-15T11:39:18;7.05;;;3.88;;
60464;SDS011;46314;52.392;9.758;2022-11-15T11:41:53;4.43;;;2.78;;
60464;SDS011;46314;52.392;9.758;2022-11-15T11:44:32;3.80;;;3.08;;
60464;SDS011;46314;52.392;9.758;2022-11-15T11:47:03;4.68;;;3.25;;
60464;SDS011;46314;52.392;9.758;2022-11-15T11:49:38;4.28;;;3.13;;
60464;SDS011;46314;52.392;9.758;2022-11-15T11:52:10;4.95;;;2.65;;
60464;SDS011;46314;52.392;9.758;2022-11-15T11:54:45;5.22;;;3.13;;
60464;SDS011;46314;52.392;9.758;2022-11-15T11:57:22;4.47;;;3.63;;
60464;SDS011;46314;52.392;9.758;2022-11-15T11:59:55;4.25;;;3.28;;
60464;SDS011;46314;52.392;9.758;2022-11-15T12:02:27;3.95;;;2.90;;
60464;SDS011;46314;52.392;9.758;2022-11-15T12:05:01;6.18;;;3.53;;
60464;SDS011;46314;52.392;9.758;2022-11-15T12:07:34;4.15;;;3.38;;
60464;SDS011;46314;52.392;9.758;2022-11-15T12:10:04;5.53;;;3.25;;
60464;SDS011;46314;52.392;9.758;2022-11-15T12:12:39;4.82;;;3.20;;
60464;SDS011;46314;52.392;9.758;2022-11-15T12:15:14;5.10;;;3.75;;
60464;SDS011;46314;52.392;9.758;2022-11-15T12:17:43;5.47;;;3.50;;
60464;SDS011;46314;52.392;9.758;2022-11-15T12:20:14;5.13;;;3.22;;
60464;SDS011;46314;52.392;9.758;2022-11-15T12:22:42;5.55;;;3.75;;
60464;SDS011;46314;52.392;9.758;2022-11-15T12:25:16;7.53;;;3.63;;
60464;SDS011;46314;52.392;9.758;2022-11-15T12:27:48;7.07;;;3.50;;
60464;SDS011;46314;52.392;9.758;2022-11-15T12:30:19;4.78;;;3.30;;
60464;SDS011;46314;52.392;9.758;2022-11-15T12:32:51;4.65;;;3.30;;
60464;SDS011;46314;52.392;9.758;2022-11-15T12:35:21;4.43;;;3.60;;
60464;SDS011;46314;52.392;9.758;2022-11-15T12:37:51;6.93;;;4.13;;
60464;SDS011;46314;52.392;9.758;2022-11-15T12:40:21;3.85;;;3.17;;
60464;SDS011;46314;52.392;9.758;2022-11-15T12:43:00;6.03;;;3.95;;
60464;SDS011;46314;52.392;9.758;2022-11-15T12:45:51;4.90;;;3.15;;
60464;SDS011;46314;52.392;9.758;2022-11-15T12:57:31;4.60;;;3.22;;
60464;SDS011;46314;52.392;9.758;2022-11-15T13:00:05;3.75;;;3.05;;
60464;SDS011;46314;52.392;9.758;2022-11-15T13:06:03;7.40;;;3.80;;
60464;SDS011;46314;52.392;9.758;2022-11-15T13:08:47;5.20;;;3.05;;
60464;SDS011;46314;52.392;9.758;2022-11-15T13:14:39;4.38;;;3.58;;
60464;SDS011;46314;52.392;9.758;2022-11-15T13:17:24;5.40;;;3.85;;
60464;SDS011;46314;52.392;9.758;2022-11-15T13:19:58;6.25;;;3.78;;
60464;SDS011;46314;52.392;9.758;2022-11-15T13:22:26;4.03;;;3.03;;
60464;SDS011;46314;52.392;9.758;2022-11-15T13:24:54;5.72;;;3.92;;
60464;SDS011;46314;52.392;9.758;2022-11-15T13:27:20;5.57;;;3.50;;
60464;SDS011;46314;52.392;9.758;2022-11-15T13:29:48;5.78;;;3.58;;
60464;SDS011;46314;52.392;9.758;2022-11-15T13:32:15;3.88;;;3.10;;
60464;SDS011;46314;52.392;9.758;2022-11-15T13:34:42;5.57;;;3.97;;
60464;SDS011;46314;52.392;9.758;2022-11-15T13:37:27;5.60;;;3.72;;
60464;SDS011;46314;52.392;9.758;2022-11-15T13:40:00;8.20;;;3.70;;
60464;SDS011;46314;52.392;9.758;2022-11-15T13:42:42;5.03;;;4.40;;
60464;SDS011;46314;52.392;9.758;2022-11-15T13:45:14;4.65;;;4.03;;
60464;SDS011;46314;52.392;9.758;2022-11-15T13:47:42;6.15;;;4.03;;
60464;SDS011;46314;52.392;9.758;2022-11-15T13:50:10;4.68;;;3.58;;
60464;SDS011;46314;52.392;9.758;2022-11-15T13:52:38;9.90;;;3.78;;
60464;SDS011;46314;52.392;9.758;2022-11-15T13:55:09;4.95;;;3.30;;
60464;SDS011;46314;52.392;9.758;2022-11-15T13:57:40;4.80;;;3.85;;
60464;SDS011;46314;52.392;9.758;2022-11-15T14:00:25;4.60;;;3.35;;
60464;SDS011;46314;52.392;9.758;2022-11-15T14:02:55;4.57;;;3.25;;
60464;SDS011;46314;52.392;9.758;2022-11-15T14:05:30;5.68;;;3.25;;
60464;SDS011;46314;52.392;9.758;2022-11-15T14:07:57;4.53;;;3.55;;
60464;SDS011;46314;52.392;9.758;2022-11-15T14:10:27;3.63;;;3.20;;
60464;SDS011;46314;52.392;9.758;2022-11-15T14:12:55;3.95;;;3.40;;
60464;SDS011;46314;52.392;9.758;2022-11-15T14:15:26;4.22;;;3.45;;
60464;SDS011;46314;52.392;9.758;2022-11-15T14:17:55;6.18;;;3.60;;
60464;SDS011;46314;52.392;9.758;2022-11-15T14:20:29;4.47;;;3.42;;
60464;SDS011;46314;52.392;9.758;2022-11-15T14:22:57;5.00;;;3.38;;
60464;SDS011;46314;52.392;9.758;2022-11-15T14:25:25;5.32;;;3.85;;
60464;SDS011;46314;52.392;9.758;2022-11-15T14:28:09;6.47;;;3.53;;
60464;SDS011;46314;52.392;9.758;2022-11-15T14:30:39;6.05;;;3.47;;
60464;SDS011;46314;52.392;9.758;2022-11-15T14:33:20;3.53;;;2.80;;
60464;SDS011;46314;52.392;9.758;2022-11-15T14:35:49;6.25;;;3.25;;
60464;SDS011;46314;52.392;9.758;2022-11-15T14:38:16;4.15;;;3.50;;
60464;SDS011;46314;52.392;9.758;2022-11-15T14:40:42;4.68;;;3.60;;
60464;SDS011;46314;52.392;9.758;2022-11-15T14:43:10;4.72;;;3.40;;
60464;SDS011;46314;52.392;9.758;2022-11-15T14:45:39;4.63;;;3.85;;
60464;SDS011;46314;52.392;9.758;2022-11-15T14:48:06;4.88;;;3.20;;
60464;SDS011;46314;52.392;9.758;2022-11-15T14:50:33;6.45;;;3.72;;
60464;SDS011;46314;52.392;9.758;2022-11-15T14:53:00;3.63;;;3.10;;
60464;SDS011;46314;52.392;9.758;2022-11-15T14:55:27;4.55;;;3.10;;
60464;SDS011;46314;52.392;9.758;2022-11-15T14:57:55;3.42;;;2.72;;
60464;SDS011;46314;52.392;9.758;2022-11-15T15:00:22;4.97;;;3.13;;
60464;SDS011;46314;52.392;9.758;2022-11-15T15:02:50;3.72;;;3.10;;
60464;SDS011;46314;52.392;9.758;2022-11-15T15:05:20;5.40;;;3.38;;
60464;SDS011;46314;52.392;9.758;2022-11-15T15:07:47;4.43;;;3.40;;
60464;SDS011;46314;52.392;9.758;2022-11-15T15:10:15;4.75;;;3.10;;
60464;SDS011;46314;52.392;9.758;2022-11-15T15:13:03;6.20;;;3.63;;
60464;SDS011;46314;52.392;9.758;2022-11-15T15:15:31;5.85;;;3.20;;
60464;SDS011;46314;52.392;9.758;2022-11-15T15:18:01;6.53;;;3.45;;
60464;SDS011;46314;52.392;9.758;2022-11-15T15:20:28;7.28;;;3.55;;
60464;SDS011;46314;52.392;9.758;2022-11-15T15:22:55;4.72;;;3.30;;
60464;SDS011;46314;52.392;9.758;2022-11-15T15:25:22;6.07;;;3.80;;